Time;durP1;ratioP1;P1;durP2;ratioP2;P2;SDS_P1;SDS_P2;PMS_P1;PMS_P2;Temp;Humidity;BMP_temperature;BMP_pressure;BME280_temperature;BME280_humidity;BME280_pressure;Samples;Min_cycle;Max_cycle;Signal;HPM_P1;HPM_P2
2021/05/01 00:01:03;;;;;;;9.63;7.27;;;;;;;;;;5086335;28;20184;-84
2021/05/01 00:03:29;;;;;;;7.75;6.95;;;;;;;;;;5077397;28;20434;-84
2021/05/01 00:05:55;;;;;;;7.75;7.05;;;;;;;;;;5089809;28;20211;-84
2021/05/01 00:08:22;;;;;;;10.83;7.10;;;;;;;;;;5072524;28;20188;-84
2021/05/01 00:10:48;;;;;;;8.27;7.47;;;;;;;;;;5071458;28;20465;-84
2021/05/01 00:13:14;;;;;;;7.72;6.95;;;;;;;;;;5064636;28;20185;-84
2021/05/01 00:15:40;;;;;;;9.07;7.37;;;;;;;;;;5060826;28;20184;-84
2021/05/01 00:18:06;;;;;;;8.55;6.95;;;;;;;;;;5091864;28;20501;-84
2021/05/01 00:20:32;;;;;;;8.50;7.40;;;;;;;;;;5077097;28;20183;-84
2021/05/01 00:22:58;;;;;;;7.90;7.15;;;;;;;;;;5075855;28;20189;-83
2021/05/01 00:25:24;;;;;;;9.57;8.57;;;;;;;;;;5062384;28;20216;-84
2021/05/01 00:27:50;;;;;;;10.45;7.57;;;;;;;;;;5080881;28;20665;-85
2021/05/01 00:30:17;;;;;;;8.02;7.25;;;;;;;;;;5070210;28;20316;-84
2021/05/01 00:32:43;;;;;;;9.23;8.32;;;;;;;;;;5068089;28;20182;-84
2021/05/01 00:35:09;;;;;;;8.38;7.30;;;;;;;;;;5081417;28;20187;-85
2021/05/01 00:37:35;;;;;;;8.82;8.02;;;;;;;;;;5083602;28;20192;-84
2021/05/01 00:40:01;;;;;;;9.50;8.60;;;;;;;;;;5091076;28;20188;-84
2021/05/01 00:42:27;;;;;;;8.60;7.80;;;;;;;;;;5087099;28;20188;-84
2021/05/01 00:44:53;;;;;;;9.02;8.13;;;;;;;;;;5096913;28;20584;-84
2021/05/01 00:47:19;;;;;;;8.82;8.00;;;;;;;;;;5101437;28;20205;-85
2021/05/01 00:49:45;;;;;;;10.37;8.40;;;;;;;;;;5103913;28;20205;-84
2021/05/01 00:52:11;;;;;;;11.73;8.23;;;;;;;;;;5110433;28;20414;-84
2021/05/01 00:54:37;;;;;;;11.50;8.20;;;;;;;;;;5106573;28;20443;-85
2021/05/01 00:57:03;;;;;;;10.60;8.20;;;;;;;;;;5098424;28;20414;-84
2021/05/01 00:59:29;;;;;;;12.57;8.23;;;;;;;;;;5095602;28;20183;-84
2021/05/01 01:01:55;;;;;;;8.98;8.13;;;;;;;;;;5094445;28;20239;-84
2021/05/01 01:04:22;;;;;;;8.93;8.07;;;;;;;;;;5101283;28;20545;-85
2021/05/01 01:06:48;;;;;;;8.38;7.43;;;;;;;;;;5100481;28;20204;-84
2021/05/01 01:09:14;;;;;;;9.30;8.15;;;;;;;;;;5099432;28;20175;-85
2021/05/01 01:11:41;;;;;;;9.40;8.23;;;;;;;;;;5095192;28;20172;-85
2021/05/01 01:14:08;;;;;;;11.07;9.98;;;;;;;;;;5100774;28;20194;-85
2021/05/01 01:16:35;;;;;;;8.07;7.38;;;;;;;;;;5103281;28;20188;-84
2021/05/01 01:19:01;;;;;;;8.73;7.82;;;;;;;;;;5098074;28;20271;-84
2021/05/01 01:21:27;;;;;;;12.38;8.40;;;;;;;;;;5105056;28;20672;-84
2021/05/01 01:23:54;;;;;;;10.45;9.35;;;;;;;;;;5107147;28;20581;-84
2021/05/01 01:26:20;;;;;;;8.80;8.00;;;;;;;;;;5100020;28;20210;-84
2021/05/01 01:28:47;;;;;;;8.75;7.93;;;;;;;;;;5100198;28;20234;-84
2021/05/01 01:31:13;;;;;;;9.57;8.18;;;;;;;;;;5098828;28;20203;-84
2021/05/01 01:33:39;;;;;;;9.50;8.50;;;;;;;;;;5106026;28;20721;-84
2021/05/01 01:36:06;;;;;;;10.77;8.63;;;;;;;;;;5090868;28;20184;-83
2021/05/01 01:38:32;;;;;;;10.95;8.95;;;;;;;;;;5094863;28;20251;-83
2021/05/01 01:40:58;;;;;;;8.68;7.95;;;;;;;;;;5095333;28;20210;-83
2021/05/01 01:43:25;;;;;;;13.07;7.75;;;;;;;;;;5094186;28;20251;-83
2021/05/01 01:45:52;;;;;;;9.95;9.07;;;;;;;;;;5066021;28;20204;-84
2021/05/01 01:48:18;;;;;;;9.93;8.68;;;;;;;;;;5063732;28;20176;-84
2021/05/01 01:50:44;;;;;;;10.25;8.77;;;;;;;;;;5076486;28;20194;-84
2021/05/01 01:53:10;;;;;;;9.38;8.52;;;;;;;;;;5074258;28;20184;-84
2021/05/01 01:55:36;;;;;;;10.27;8.75;;;;;;;;;;5074921;28;20181;-84
2021/05/01 01:58:02;;;;;;;9.73;8.05;;;;;;;;;;5063467;28;20176;-84
2021/05/01 02:00:29;;;;;;;11.15;8.52;;;;;;;;;;5074786;28;20193;-84
2021/05/01 02:02:56;;;;;;;9.07;8.18;;;;;;;;;;5087404;28;20168;-84
2021/05/01 02:05:22;;;;;;;10.45;8.27;;;;;;;;;;5074011;28;20202;-84
2021/05/01 02:07:48;;;;;;;10.52;8.35;;;;;;;;;;5062942;28;20235;-84
2021/05/01 02:10:15;;;;;;;9.48;8.50;;;;;;;;;;5075145;28;20180;-84
2021/05/01 02:12:41;;;;;;;11.50;9.15;;;;;;;;;;5086863;28;20165;-83
2021/05/01 02:15:13;;;;;;;10.13;9.00;;;;;;;;;;5085704;28;20188;-83
2021/05/01 02:17:44;;;;;;;9.15;8.30;;;;;;;;;;5088589;28;20160;-83
2021/05/01 02:20:11;;;;;;;12.38;9.00;;;;;;;;;;5085021;28;20277;-84
2021/05/01 02:22:37;;;;;;;9.15;7.95;;;;;;;;;;5092049;28;20210;-84
2021/05/01 02:25:03;;;;;;;12.27;8.80;;;;;;;;;;5087436;28;20210;-84
2021/05/01 02:27:29;;;;;;;9.70;8.80;;;;;;;;;;5078032;28;20252;-84
2021/05/01 02:29:55;;;;;;;11.10;8.83;;;;;;;;;;5080222;28;20187;-84
2021/05/01 02:32:21;;;;;;;9.63;8.68;;;;;;;;;;5082273;28;20542;-84
2021/05/01 02:34:47;;;;;;;10.52;7.45;;;;;;;;;;5083614;28;20181;-85
2021/05/01 02:37:14;;;;;;;9.63;8.18;;;;;;;;;;5091643;28;20180;-84
2021/05/01 02:39:40;;;;;;;9.43;8.45;;;;;;;;;;5079117;28;20211;-84
2021/05/01 02:42:06;;;;;;;11.77;9.05;;;;;;;;;;5063773;28;20172;-84
2021/05/01 02:44:32;;;;;;;9.25;8.27;;;;;;;;;;5078426;28;20668;-84
2021/05/01 02:46:58;;;;;;;9.52;8.57;;;;;;;;;;5077546;28;20204;-81
2021/05/01 02:49:24;;;;;;;9.63;8.68;;;;;;;;;;5065306;28;20188;-84
2021/05/01 02:51:50;;;;;;;8.30;7.60;;;;;;;;;;5072548;28;20192;-84
2021/05/01 02:54:16;;;;;;;10.65;9.40;;;;;;;;;;5083502;28;20443;-85
2021/05/01 02:56:42;;;;;;;10.15;8.98;;;;;;;;;;5093178;28;20664;-84
2021/05/01 02:59:08;;;;;;;10.33;8.40;;;;;;;;;;5064406;28;20188;-84
2021/05/01 03:01:34;;;;;;;10.60;9.05;;;;;;;;;;5079452;28;20426;-84
2021/05/01 03:04:00;;;;;;;11.45;8.13;;;;;;;;;;5081270;28;20181;-83
2021/05/01 03:06:26;;;;;;;10.55;9.30;;;;;;;;;;5087574;28;20208;-83
2021/05/01 03:08:52;;;;;;;11.43;9.10;;;;;;;;;;5090087;28;20221;-84
2021/05/01 03:11:18;;;;;;;10.38;9.35;;;;;;;;;;5077830;28;20768;-84
2021/05/01 03:13:44;;;;;;;10.60;9.60;;;;;;;;;;5076620;28;20181;-84
2021/05/01 03:16:10;;;;;;;9.93;8.90;;;;;;;;;;5072591;28;20436;-81
2021/05/01 03:18:36;;;;;;;9.77;8.80;;;;;;;;;;5079892;28;20188;-85
2021/05/01 03:21:02;;;;;;;10.85;9.43;;;;;;;;;;5080951;28;20419;-85
2021/05/01 03:23:28;;;;;;;10.23;9.07;;;;;;;;;;5079336;28;20208;-85
2021/05/01 03:25:54;;;;;;;10.32;9.38;;;;;;;;;;5062018;28;20208;-85
2021/05/01 03:28:22;;;;;;;11.02;9.20;;;;;;;;;;5089228;28;20265;-85
2021/05/01 03:30:48;;;;;;;11.13;10.10;;;;;;;;;;5074028;28;20177;-84
2021/05/01 03:33:15;;;;;;;9.90;8.90;;;;;;;;;;5078783;28;20173;-84
2021/05/01 03:35:41;;;;;;;10.07;9.00;;;;;;;;;;5081249;28;20204;-84
2021/05/01 03:38:07;;;;;;;10.00;9.00;;;;;;;;;;5078993;28;20213;-84
2021/05/01 03:40:33;;;;;;;12.18;9.63;;;;;;;;;;5070455;28;20252;-85
2021/05/01 03:42:59;;;;;;;11.45;10.25;;;;;;;;;;5074505;28;20271;-84
2021/05/01 03:45:25;;;;;;;12.67;9.20;;;;;;;;;;5087915;28;20228;-85
2021/05/01 03:47:51;;;;;;;10.95;9.85;;;;;;;;;;5089329;28;20467;-85
2021/05/01 03:50:17;;;;;;;11.25;8.73;;;;;;;;;;5082179;28;20202;-85
2021/05/01 03:52:43;;;;;;;13.48;10.40;;;;;;;;;;5082701;28;20181;-84
2021/05/01 03:55:09;;;;;;;13.13;10.23;;;;;;;;;;5074051;28;20188;-84
2021/05/01 03:57:35;;;;;;;11.82;9.82;;;;;;;;;;5076650;28;20186;-84
2021/05/01 04:00:02;;;;;;;10.43;9.05;;;;;;;;;;5080425;28;20216;-82
2021/05/01 04:02:28;;;;;;;10.55;9.45;;;;;;;;;;5079243;28;20593;-84
2021/05/01 04:04:54;;;;;;;11.35;9.45;;;;;;;;;;5075893;28;20207;-84
2021/05/01 04:07:20;;;;;;;9.20;8.30;;;;;;;;;;5072744;28;20181;-84
2021/05/01 04:09:46;;;;;;;13.98;9.52;;;;;;;;;;5054536;28;20180;-84
2021/05/01 04:12:12;;;;;;;11.27;9.80;;;;;;;;;;5063406;28;20172;-84
2021/05/01 04:14:38;;;;;;;11.45;10.32;;;;;;;;;;5083881;28;20427;-84
2021/05/01 04:17:04;;;;;;;11.43;9.80;;;;;;;;;;5070762;28;20215;-84
2021/05/01 04:19:30;;;;;;;10.23;9.25;;;;;;;;;;5086006;28;20469;-85
2021/05/01 04:22:03;;;;;;;11.75;10.63;;;;;;;;;;5074646;28;20180;-84
2021/05/01 04:24:29;;;;;;;11.52;10.20;;;;;;;;;;5069372;28;20192;-84
2021/05/01 04:26:55;;;;;;;13.70;9.77;;;;;;;;;;5071498;28;20207;-84
2021/05/01 04:29:21;;;;;;;11.52;10.27;;;;;;;;;;5081799;28;20187;-84
2021/05/01 04:31:47;;;;;;;12.80;10.57;;;;;;;;;;5081698;28;20188;-84
2021/05/01 04:34:13;;;;;;;11.00;9.90;;;;;;;;;;5084885;28;20491;-85
2021/05/01 04:36:39;;;;;;;12.32;10.45;;;;;;;;;;5059160;28;20655;-85
2021/05/01 04:39:07;;;;;;;15.30;10.70;;;;;;;;;;5060448;28;20192;-84
2021/05/01 04:41:33;;;;;;;11.25;10.15;;;;;;;;;;5059455;28;20415;-85
2021/05/01 04:43:59;;;;;;;12.40;11.10;;;;;;;;;;5077341;28;20215;-86
2021/05/01 04:46:25;;;;;;;10.82;9.73;;;;;;;;;;5099154;28;20218;-85
2021/05/01 04:48:51;;;;;;;11.70;10.10;;;;;;;;;;5110023;28;20191;-85
2021/05/01 04:51:18;;;;;;;13.15;10.82;;;;;;;;;;5109033;28;20175;-84
2021/05/01 04:53:45;;;;;;;12.40;10.48;;;;;;;;;;5104953;28;20182;-85
2021/05/01 04:56:11;;;;;;;12.43;10.98;;;;;;;;;;5104051;28;20186;-82
2021/05/01 04:58:37;;;;;;;13.00;11.55;;;;;;;;;;5103087;28;20184;-84
2021/05/01 05:01:03;;;;;;;12.32;11.02;;;;;;;;;;5108668;28;20187;-83
2021/05/01 05:03:29;;;;;;;16.40;11.65;;;;;;;;;;5105307;28;20205;-85
2021/05/01 05:05:55;;;;;;;12.57;11.25;;;;;;;;;;5107613;28;20199;-86
2021/05/01 05:08:21;;;;;;;13.45;10.25;;;;;;;;;;5101304;28;20183;-85
2021/05/01 05:10:47;;;;;;;13.93;11.90;;;;;;;;;;5102599;28;20172;-84
2021/05/01 05:13:13;;;;;;;12.77;11.38;;;;;;;;;;5111287;28;20783;-83
2021/05/01 05:15:39;;;;;;;12.35;10.80;;;;;;;;;;5102163;28;20230;-85
2021/05/01 05:18:05;;;;;;;12.20;10.90;;;;;;;;;;5098953;28;20237;-84
2021/05/01 05:20:31;;;;;;;14.07;11.68;;;;;;;;;;5097406;28;20416;-85
2021/05/01 05:22:57;;;;;;;12.27;11.05;;;;;;;;;;5094045;28;20180;-85
2021/05/01 05:25:23;;;;;;;13.65;11.02;;;;;;;;;;5088635;28;20207;-85
2021/05/01 05:27:49;;;;;;;11.75;10.65;;;;;;;;;;5107585;28;20184;-84
2021/05/01 05:30:15;;;;;;;13.13;11.10;;;;;;;;;;5088250;28;20181;-84
2021/05/01 05:32:41;;;;;;;14.27;12.68;;;;;;;;;;5104089;28;20178;-85
2021/05/01 05:35:08;;;;;;;16.38;13.23;;;;;;;;;;5099685;28;20176;-83
2021/05/01 05:37:34;;;;;;;14.27;11.88;;;;;;;;;;5097027;28;20183;-84
2021/05/01 05:40:00;;;;;;;12.00;10.80;;;;;;;;;;5100271;28;20188;-84
2021/05/01 05:42:26;;;;;;;12.75;10.98;;;;;;;;;;5111217;28;20176;-84
2021/05/01 05:44:52;;;;;;;13.02;10.45;;;;;;;;;;5100594;28;20214;-85
2021/05/01 05:47:18;;;;;;;13.13;10.82;;;;;;;;;;5101116;28;20195;-82
2021/05/01 05:49:44;;;;;;;13.07;10.60;;;;;;;;;;5101444;27;20275;-85
2021/05/01 05:52:10;;;;;;;12.23;11.00;;;;;;;;;;5100315;28;20236;-85
2021/05/01 05:54:40;;;;;;;12.18;10.95;;;;;;;;;;5088771;28;20193;-86
2021/05/01 05:57:10;;;;;;;15.55;10.98;;;;;;;;;;5091886;28;20230;-85
2021/05/01 05:59:36;;;;;;;13.75;12.23;;;;;;;;;;5097947;28;20210;-85
2021/05/01 06:02:03;;;;;;;14.48;11.20;;;;;;;;;;5094634;28;20180;-86
2021/05/01 06:04:31;;;;;;;13.70;12.35;;;;;;;;;;5092991;28;20175;-85
2021/05/01 06:07:17;;;;;;;15.38;11.88;;;;;;;;;;5108960;28;20217;-87
2021/05/01 06:09:43;;;;;;;13.77;12.20;;;;;;;;;;5107337;28;20188;-88
2021/05/01 06:12:10;;;;;;;11.63;10.45;;;;;;;;;;5097126;28;20168;-85
2021/05/01 06:14:38;;;;;;;13.70;12.30;;;;;;;;;;5101272;28;20183;-85
2021/05/01 06:17:04;;;;;;;13.35;11.35;;;;;;;;;;5104375;28;20211;-86
2021/05/01 06:19:30;;;;;;;13.70;12.30;;;;;;;;;;5105812;28;20184;-85
2021/05/01 06:21:56;;;;;;;11.93;10.82;;;;;;;;;;5109332;28;20248;-85
2021/05/01 06:24:23;;;;;;;13.95;12.50;;;;;;;;;;5086588;28;20200;-84
2021/05/01 06:26:49;;;;;;;13.13;11.73;;;;;;;;;;5104666;28;20205;-85
2021/05/01 06:29:15;;;;;;;13.32;12.02;;;;;;;;;;5099674;28;20179;-85
2021/05/01 06:31:41;;;;;;;12.57;11.38;;;;;;;;;;5108080;28;20176;-86
2021/05/01 06:34:08;;;;;;;16.40;13.35;;;;;;;;;;5105258;28;20226;-85
2021/05/01 06:36:36;;;;;;;13.85;12.45;;;;;;;;;;5099805;28;20184;-84
2021/05/01 06:39:05;;;;;;;15.23;13.38;;;;;;;;;;5098480;28;20182;-87
2021/05/01 06:41:40;;;;;;;13.25;12.05;;;;;;;;;;5094315;28;20183;-86
2021/05/01 06:44:10;;;;;;;13.68;12.27;;;;;;;;;;5081629;28;20747;-86
2021/05/01 06:46:39;;;;;;;15.93;12.50;;;;;;;;;;5074401;28;20653;-84
2021/05/01 06:49:08;;;;;;;12.70;11.40;;;;;;;;;;5058525;28;20191;-84
2021/05/01 06:51:37;;;;;;;14.90;13.30;;;;;;;;;;5081141;28;20203;-85
2021/05/01 06:54:04;;;;;;;14.32;12.10;;;;;;;;;;5066336;28;20196;-85
2021/05/01 06:56:30;;;;;;;13.90;12.35;;;;;;;;;;5063911;28;20184;-86
2021/05/01 06:59:02;;;;;;;15.57;13.30;;;;;;;;;;5079409;28;20185;-86
2021/05/01 07:01:28;;;;;;;21.35;14.25;;;;;;;;;;5088048;28;20181;-86
2021/05/01 07:03:54;;;;;;;15.52;13.52;;;;;;;;;;5077313;28;20650;-84
2021/05/01 07:06:21;;;;;;;14.25;12.65;;;;;;;;;;5071217;28;20205;-85
2021/05/01 07:08:47;;;;;;;19.33;13.38;;;;;;;;;;5072413;28;20237;-87
2021/05/01 07:11:13;;;;;;;19.52;13.43;;;;;;;;;;5072941;28;20192;-86
2021/05/01 07:13:40;;;;;;;13.90;12.40;;;;;;;;;;5075554;28;20180;-84
2021/05/01 07:16:10;;;;;;;15.10;13.52;;;;;;;;;;5066722;28;20191;-84
2021/05/01 07:18:38;;;;;;;17.33;13.63;;;;;;;;;;5072265;28;20203;-84
2021/05/01 07:21:04;;;;;;;15.38;13.50;;;;;;;;;;5070490;28;20173;-84
2021/05/01 07:23:30;;;;;;;15.82;14.13;;;;;;;;;;5054584;28;20184;-84
2021/05/01 07:25:56;;;;;;;16.15;14.65;;;;;;;;;;5059226;28;20568;-84
2021/05/01 07:28:26;;;;;;;19.63;14.80;;;;;;;;;;5077904;28;20200;-86
2021/05/01 07:30:56;;;;;;;16.23;13.10;;;;;;;;;;5062121;28;20186;-85
2021/05/01 07:33:28;;;;;;;17.27;14.50;;;;;;;;;;5070498;28;20203;-84
2021/05/01 07:35:55;;;;;;;16.83;14.00;;;;;;;;;;5071056;28;20180;-84
2021/05/01 07:38:22;;;;;;;15.55;13.95;;;;;;;;;;5069507;28;20185;-84
2021/05/01 07:40:50;;;;;;;16.25;14.55;;;;;;;;;;5059089;28;20180;-84
2021/05/01 07:43:17;;;;;;;17.75;14.93;;;;;;;;;;5071219;28;20234;-83
2021/05/01 07:45:45;;;;;;;15.75;13.85;;;;;;;;;;5068577;28;20300;-84
2021/05/01 07:48:11;;;;;;;15.85;14.27;;;;;;;;;;5077538;28;20175;-84
2021/05/01 07:50:38;;;;;;;14.80;13.30;;;;;;;;;;5062208;28;20165;-84
2021/05/01 07:53:04;;;;;;;16.58;14.88;;;;;;;;;;5064282;28;20187;-84
2021/05/01 07:55:31;;;;;;;17.38;13.52;;;;;;;;;;5055216;28;20252;-85
2021/05/01 07:57:57;;;;;;;16.30;14.60;;;;;;;;;;5070598;28;20192;-85
2021/05/01 08:00:23;;;;;;;16.38;14.23;;;;;;;;;;5049543;28;20204;-84
2021/05/01 08:02:49;;;;;;;14.40;12.90;;;;;;;;;;5072581;28;20181;-84
2021/05/01 08:05:17;;;;;;;18.35;15.13;;;;;;;;;;5062928;28;20199;-82
2021/05/01 08:07:44;;;;;;;17.35;15.55;;;;;;;;;;5067578;28;20231;-84
2021/05/01 08:10:10;;;;;;;18.35;16.13;;;;;;;;;;5091742;28;20199;-85
2021/05/01 08:12:36;;;;;;;19.02;15.63;;;;;;;;;;5053772;28;20180;-84
2021/05/01 08:15:03;;;;;;;15.88;14.27;;;;;;;;;;5088162;28;20180;-84
2021/05/01 08:17:29;;;;;;;17.80;14.30;;;;;;;;;;5087983;28;20172;-83
2021/05/01 08:19:56;;;;;;;17.23;13.60;;;;;;;;;;5066829;28;20654;-85
2021/05/01 08:22:22;;;;;;;15.60;13.75;;;;;;;;;;5088209;28;20495;-85
2021/05/01 08:24:48;;;;;;;16.40;14.80;;;;;;;;;;5070163;28;20180;-84
2021/05/01 08:27:14;;;;;;;16.05;14.30;;;;;;;;;;5067667;28;20203;-84
2021/05/01 08:29:40;;;;;;;15.40;13.90;;;;;;;;;;5054050;28;20185;-85
2021/05/01 08:32:06;;;;;;;15.90;14.20;;;;;;;;;;5060457;28;20172;-83
2021/05/01 08:34:32;;;;;;;14.40;12.90;;;;;;;;;;5077130;28;20265;-84
2021/05/01 08:37:00;;;;;;;14.85;13.35;;;;;;;;;;5069538;28;20443;-84
2021/05/01 08:39:26;;;;;;;15.95;13.70;;;;;;;;;;5070489;28;20276;-85
2021/05/01 08:41:52;;;;;;;16.67;14.02;;;;;;;;;;5068409;28;20185;-86
2021/05/01 08:44:18;;;;;;;15.43;13.80;;;;;;;;;;5076727;28;20234;-85
2021/05/01 08:46:46;;;;;;;16.58;14.15;;;;;;;;;;5088402;28;20669;-85
2021/05/01 08:49:12;;;;;;;15.30;13.80;;;;;;;;;;5092051;28;20237;-84
2021/05/01 08:51:41;;;;;;;17.58;15.80;;;;;;;;;;5106123;28;20214;-84
2021/05/01 08:54:07;;;;;;;16.55;14.88;;;;;;;;;;5108087;28;20200;-84
2021/05/01 08:56:33;;;;;;;16.17;14.55;;;;;;;;;;5103154;28;20175;-84
2021/05/01 08:59:00;;;;;;;15.60;14.00;;;;;;;;;;5108576;28;20224;-85
2021/05/01 09:01:27;;;;;;;17.30;14.73;;;;;;;;;;5103979;28;20286;-84
2021/05/01 09:03:53;;;;;;;18.35;14.93;;;;;;;;;;5097206;28;20195;-88
2021/05/01 09:06:22;;;;;;;18.33;14.88;;;;;;;;;;5106519;28;20202;-85
2021/05/01 09:08:54;;;;;;;15.40;13.80;;;;;;;;;;5097784;28;20176;-86
2021/05/01 09:11:31;;;;;;;15.48;13.98;;;;;;;;;;5096454;28;20191;-85
2021/05/01 09:13:57;;;;;;;15.77;14.07;;;;;;;;;;5094782;28;20179;-86
2021/05/01 09:16:23;;;;;;;16.20;14.30;;;;;;;;;;5092992;28;20215;-86
2021/05/01 09:18:55;;;;;;;15.05;13.52;;;;;;;;;;5088152;28;20442;-85
2021/05/01 09:21:22;;;;;;;15.65;14.05;;;;;;;;;;5106810;28;20177;-84
2021/05/01 09:23:49;;;;;;;20.75;14.07;;;;;;;;;;5104118;28;20644;-83
2021/05/01 09:26:15;;;;;;;14.73;13.00;;;;;;;;;;5101875;28;20207;-85
2021/05/01 09:28:43;;;;;;;16.13;14.35;;;;;;;;;;5102957;28;20176;-86
2021/05/01 09:31:10;;;;;;;15.77;13.95;;;;;;;;;;5110964;28;20279;-86
2021/05/01 09:33:42;;;;;;;15.32;13.73;;;;;;;;;;5104395;28;20252;-84
2021/05/01 09:36:27;;;;;;;16.10;14.02;;;;;;;;;;5108117;28;20189;-85
2021/05/01 09:39:10;;;;;;;16.40;14.73;;;;;;;;;;5108276;28;20198;-88
2021/05/01 09:41:46;;;;;;;15.48;13.88;;;;;;;;;;5099874;28;20647;-85
2021/05/01 09:44:23;;;;;;;16.23;14.52;;;;;;;;;;5092841;28;20202;-87
2021/05/01 09:46:50;;;;;;;15.25;13.65;;;;;;;;;;5094238;28;20208;-85
2021/05/01 09:49:16;;;;;;;19.15;16.45;;;;;;;;;;5099642;28;20219;-88
2021/05/01 09:51:44;;;;;;;17.45;15.43;;;;;;;;;;5094769;28;20680;-88
2021/05/01 09:54:11;;;;;;;15.57;13.98;;;;;;;;;;5092283;28;20172;-85
2021/05/01 09:56:37;;;;;;;15.90;14.23;;;;;;;;;;5096035;28;20172;-84
2021/05/01 09:59:03;;;;;;;14.00;12.43;;;;;;;;;;5094259;28;20257;-86
2021/05/01 10:01:30;;;;;;;12.18;10.82;;;;;;;;;;5091587;28;20181;-85
2021/05/01 10:04:21;;;;;;;12.10;9.95;;;;;;;;;;5108909;28;20180;-83
2021/05/01 10:07:08;;;;;;;14.30;12.95;;;;;;;;;;5105558;28;20211;-84
2021/05/01 10:09:35;;;;;;;12.93;11.73;;;;;;;;;;5091313;28;20199;-85
2021/05/01 10:12:04;;;;;;;11.35;10.20;;;;;;;;;;5093436;28;20221;-85
2021/05/01 10:14:38;;;;;;;11.07;9.95;;;;;;;;;;5098566;28;20175;-88
2021/05/01 10:17:05;;;;;;;11.30;10.10;;;;;;;;;;5092442;28;20653;-84
2021/05/01 10:19:51;;;;;;;11.50;10.20;;;;;;;;;;5088760;28;20180;-86
2021/05/01 10:22:26;;;;;;;11.75;9.30;;;;;;;;;;5093153;28;20191;-86
2021/05/01 10:24:52;;;;;;;11.00;9.90;;;;;;;;;;5101376;28;20241;-88
2021/05/01 10:27:19;;;;;;;12.43;10.10;;;;;;;;;;5094699;28;20607;-85
2021/05/01 10:29:46;;;;;;;14.48;10.15;;;;;;;;;;5095462;28;20206;-85
2021/05/01 10:32:29;;;;;;;12.40;9.48;;;;;;;;;;5095984;28;20183;-86
2021/05/01 10:35:00;;;;;;;9.32;8.48;;;;;;;;;;5095719;28;20176;-86
2021/05/01 10:37:34;;;;;;;10.43;9.25;;;;;;;;;;5101913;28;22694;-85
2021/05/01 10:40:00;;;;;;;10.75;9.65;;;;;;;;;;5101906;28;20238;-87
2021/05/01 10:42:26;;;;;;;10.85;9.85;;;;;;;;;;5113752;28;20662;-86
2021/05/01 10:44:56;;;;;;;11.25;8.88;;;;;;;;;;5084759;28;20300;-86
2021/05/01 10:47:22;;;;;;;10.63;9.52;;;;;;;;;;5084445;28;20203;-85
2021/05/01 10:49:48;;;;;;;9.98;8.25;;;;;;;;;;5062632;28;20177;-85
2021/05/01 10:52:16;;;;;;;11.43;9.55;;;;;;;;;;5069861;28;20718;-85
2021/05/01 10:54:59;;;;;;;10.50;9.30;;;;;;;;;;5070430;28;20181;-86
2021/05/01 10:57:25;;;;;;;11.02;9.98;;;;;;;;;;5078773;28;20185;-86
2021/05/01 10:59:58;;;;;;;12.85;9.43;;;;;;;;;;5071461;28;20242;-85
2021/05/01 11:02:28;;;;;;;11.07;9.88;;;;;;;;;;5080757;28;20183;-87
2021/05/01 11:04:57;;;;;;;10.60;9.45;;;;;;;;;;5077103;28;20185;-85
2021/05/01 11:07:29;;;;;;;9.68;8.52;;;;;;;;;;5064541;28;20614;-88
2021/05/01 11:10:01;;;;;;;10.75;9.70;;;;;;;;;;5074705;28;20288;-85
2021/05/01 11:12:28;;;;;;;10.48;9.38;;;;;;;;;;5079086;28;20245;-85
2021/05/01 11:15:03;;;;;;;11.07;10.05;;;;;;;;;;5053316;28;20208;-85
2021/05/01 11:17:35;;;;;;;9.80;8.90;;;;;;;;;;5078996;28;20180;-85
2021/05/01 11:20:01;;;;;;;9.52;8.65;;;;;;;;;;5063849;28;20226;-86
2021/05/01 11:22:28;;;;;;;11.77;9.52;;;;;;;;;;5064645;28;20185;-89
2021/05/01 11:24:57;;;;;;;9.90;8.90;;;;;;;;;;5073467;28;21010;-84
2021/05/01 11:27:24;;;;;;;8.82;8.02;;;;;;;;;;5067981;28;20216;-84
2021/05/01 11:29:50;;;;;;;9.73;8.68;;;;;;;;;;5065328;28;20180;-86
2021/05/01 11:32:17;;;;;;;10.77;8.85;;;;;;;;;;5067265;28;20185;-85
2021/05/01 11:34:46;;;;;;;8.90;8.10;;;;;;;;;;5072304;28;20188;-86
2021/05/01 11:37:12;;;;;;;10.25;8.63;;;;;;;;;;5055662;28;20192;-84
2021/05/01 11:39:39;;;;;;;10.52;9.30;;;;;;;;;;5077260;28;20197;-83
2021/05/01 11:42:05;;;;;;;11.00;10.00;;;;;;;;;;5091221;28;20199;-83
2021/05/01 11:44:31;;;;;;;10.90;9.82;;;;;;;;;;5078537;28;20244;-84
2021/05/01 11:47:07;;;;;;;12.50;11.30;;;;;;;;;;5075111;28;20270;-84
2021/05/01 11:49:34;;;;;;;13.50;11.35;;;;;;;;;;5062955;28;20545;-85
2021/05/01 11:52:09;;;;;;;11.85;10.73;;;;;;;;;;5074829;28;20188;-85
2021/05/01 11:54:38;;;;;;;11.63;10.43;;;;;;;;;;5069645;28;20173;-86
2021/05/01 11:57:11;;;;;;;12.48;10.55;;;;;;;;;;5075940;28;20237;-85
2021/05/01 11:59:44;;;;;;;13.88;12.48;;;;;;;;;;5081562;28;20183;-88
2021/05/01 12:02:11;;;;;;;13.45;11.40;;;;;;;;;;5062262;28;20182;-84
2021/05/01 12:04:52;;;;;;;11.43;10.32;;;;;;;;;;5073095;28;20189;-85
2021/05/01 12:07:30;;;;;;;13.13;11.73;;;;;;;;;;5070713;28;20204;-84
2021/05/01 12:10:01;;;;;;;13.50;11.88;;;;;;;;;;5072207;28;20207;-86
2021/05/01 12:12:28;;;;;;;15.95;13.30;;;;;;;;;;5093298;28;20257;-85
2021/05/01 12:15:01;;;;;;;13.85;12.45;;;;;;;;;;5056694;28;20233;-85
2021/05/01 12:17:30;;;;;;;15.35;13.75;;;;;;;;;;5074707;28;20692;-87
2021/05/01 12:20:07;;;;;;;14.90;13.38;;;;;;;;;;5074245;28;20184;-85
2021/05/01 12:22:33;;;;;;;16.50;14.43;;;;;;;;;;5065834;28;20188;-84
2021/05/01 12:24:59;;;;;;;15.43;13.88;;;;;;;;;;5080312;28;20263;-88
2021/05/01 12:27:44;;;;;;;13.68;12.15;;;;;;;;;;5075337;28;20205;-87
2021/05/01 12:30:30;;;;;;;14.32;12.93;;;;;;;;;;5057256;28;20180;-83
2021/05/01 12:32:56;;;;;;;13.32;11.90;;;;;;;;;;5084714;28;20167;-85
2021/05/01 12:35:22;;;;;;;14.10;12.70;;;;;;;;;;5066314;28;20180;-85
2021/05/01 12:37:48;;;;;;;11.95;10.80;;;;;;;;;;5054870;28;20552;-85
2021/05/01 12:40:14;;;;;;;15.40;12.33;;;;;;;;;;5060826;28;20188;-86
2021/05/01 12:42:40;;;;;;;13.70;12.43;;;;;;;;;;5085243;28;20455;-84
2021/05/01 12:45:25;;;;;;;13.20;12.00;;;;;;;;;;5101209;28;20459;-83
2021/05/01 12:47:51;;;;;;;34.42;13.73;;;;;;;;;;5107577;28;20435;-86
2021/05/01 12:50:22;;;;;;;13.73;12.43;;;;;;;;;;5100000;28;20176;-84
2021/05/01 12:52:48;;;;;;;13.90;12.38;;;;;;;;;;5097077;28;20438;-85
2021/05/01 12:55:15;;;;;;;13.70;12.30;;;;;;;;;;5102381;28;20268;-85
2021/05/01 12:57:41;;;;;;;12.98;10.90;;;;;;;;;;5093093;28;20187;-84
2021/05/01 13:00:24;;;;;;;14.23;12.82;;;;;;;;;;5101251;28;20183;-83
2021/05/01 13:03:05;;;;;;;14.13;12.75;;;;;;;;;;5091541;28;20222;-84
2021/05/01 13:05:33;;;;;;;14.20;12.80;;;;;;;;;;5097196;28;20202;-84
2021/05/01 13:08:00;;;;;;;14.40;13.00;;;;;;;;;;5094503;28;20176;-88
2021/05/01 13:10:29;;;;;;;13.95;12.60;;;;;;;;;;5102188;28;20211;-85
2021/05/01 13:12:56;;;;;;;14.10;12.65;;;;;;;;;;5093834;28;20187;-84
2021/05/01 13:15:23;;;;;;;14.68;13.20;;;;;;;;;;5103066;28;20183;-87
2021/05/01 13:18:07;;;;;;;14.65;13.07;;;;;;;;;;5090201;28;20191;-84
2021/05/01 13:20:33;;;;;;;13.65;12.25;;;;;;;;;;5103311;28;20550;-83
2021/05/01 13:23:00;;;;;;;13.60;12.20;;;;;;;;;;5100457;28;20192;-85
2021/05/01 13:25:27;;;;;;;13.80;12.30;;;;;;;;;;5090936;28;20172;-86
2021/05/01 13:27:55;;;;;;;14.27;12.15;;;;;;;;;;5089326;28;20188;-84
2021/05/01 13:30:26;;;;;;;15.25;12.10;;;;;;;;;;5106499;28;20229;-85
2021/05/01 13:32:56;;;;;;;16.20;13.93;;;;;;;;;;5095886;28;20183;-84
2021/05/01 13:35:22;;;;;;;16.75;13.27;;;;;;;;;;5094794;28;20208;-83
2021/05/01 13:37:48;;;;;;;14.63;13.30;;;;;;;;;;5094024;28;20183;-84
2021/05/01 13:40:21;;;;;;;16.00;14.38;;;;;;;;;;5089243;28;20175;-84
2021/05/01 13:42:47;;;;;;;15.55;14.07;;;;;;;;;;5097053;28;20207;-84
2021/05/01 13:45:14;;;;;;;18.17;14.33;;;;;;;;;;5086930;28;20524;-85
2021/05/01 13:47:43;;;;;;;15.93;14.38;;;;;;;;;;5096671;28;20417;-83
2021/05/01 13:50:13;;;;;;;15.75;14.25;;;;;;;;;;5100230;28;20171;-85
2021/05/01 13:52:44;;;;;;;15.88;14.35;;;;;;;;;;5092683;28;20180;-84
2021/05/01 13:55:22;;;;;;;15.88;14.25;;;;;;;;;;5095412;28;20180;-85
2021/05/01 13:57:50;;;;;;;16.02;14.20;;;;;;;;;;5094900;28;20186;-83
2021/05/01 14:00:17;;;;;;;16.35;14.70;;;;;;;;;;5089284;28;20188;-83
2021/05/01 14:02:45;;;;;;;17.98;14.90;;;;;;;;;;5088895;28;20185;-84
2021/05/01 14:05:13;;;;;;;14.95;13.40;;;;;;;;;;5089245;28;20700;-85
2021/05/01 14:07:47;;;;;;;15.32;13.73;;;;;;;;;;5090418;28;20190;-84
2021/05/01 14:10:14;;;;;;;16.40;13.55;;;;;;;;;;5084436;28;20559;-83
2021/05/01 14:12:40;;;;;;;16.70;15.02;;;;;;;;;;5101510;28;20750;-84
2021/05/01 14:15:08;;;;;;;18.08;16.20;;;;;;;;;;5088980;28;20184;-84
2021/05/01 14:17:34;;;;;;;16.83;15.10;;;;;;;;;;5098474;28;20183;-83
2021/05/01 14:20:01;;;;;;;16.45;14.75;;;;;;;;;;5087890;28;20215;-83
2021/05/01 14:22:28;;;;;;;14.95;13.43;;;;;;;;;;5104675;28;20192;-83
2021/05/01 14:24:54;;;;;;;17.48;15.68;;;;;;;;;;5103889;28;20177;-84
2021/05/01 14:27:21;;;;;;;17.83;15.93;;;;;;;;;;5093256;28;20234;-85